createdAt,value
2019-02-20T00:01:35.796Z,25.20
2019-02-20T00:04:05.223Z,20.87
2019-02-20T00:06:34.792Z,19.77
2019-02-20T00:09:04.908Z,23.47
2019-02-20T00:11:34.315Z,21.80
2019-02-20T00:14:03.717Z,17.80
2019-02-20T00:16:33.143Z,17.13
2019-02-20T00:19:02.557Z,18.23
2019-02-20T00:21:31.983Z,20.40
2019-02-20T00:24:01.428Z,17.03
2019-02-20T00:26:30.859Z,19.67
2019-02-20T00:29:00.278Z,23.83
2019-02-20T00:31:29.701Z,20.43
2019-02-20T00:33:59.180Z,21.03
2019-02-20T00:36:28.633Z,18.70
2019-02-20T00:38:58.041Z,18.80
2019-02-20T00:41:27.453Z,25.47
2019-02-20T00:43:58.467Z,22.23
2019-02-20T00:46:29.475Z,23.53
2019-02-20T00:49:00.506Z,19.57
2019-02-20T00:51:31.592Z,18.90
2019-02-20T00:54:02.590Z,19.13
2019-02-20T00:56:32.009Z,21.70
2019-02-20T00:59:01.418Z,20.37
2019-02-20T01:01:30.905Z,21.57
2019-02-20T01:04:00.979Z,24.07
2019-02-20T01:06:30.382Z,25.00
2019-02-20T01:08:59.800Z,20.40
2019-02-20T01:11:29.268Z,17.93
2019-02-20T01:13:58.737Z,21.97
2019-02-20T01:16:28.155Z,20.03
2019-02-20T01:18:57.654Z,21.17
2019-02-20T01:21:27.161Z,23.00
2019-02-20T01:23:56.575Z,23.30
2019-02-20T01:26:25.979Z,24.00
2019-02-20T01:28:55.377Z,21.67
2019-02-20T01:31:24.776Z,19.23
2019-02-20T01:33:54.195Z,24.17
2019-02-20T01:36:23.639Z,25.67
2019-02-20T01:38:53.050Z,22.63
2019-02-20T01:41:22.493Z,22.40
2019-02-20T01:43:51.899Z,24.00
2019-02-20T01:46:21.345Z,23.63
2019-02-20T01:48:50.806Z,18.67
2019-02-20T01:51:20.216Z,20.87
2019-02-20T01:53:49.681Z,21.13
2019-02-20T01:56:19.136Z,24.10
2019-02-20T01:58:48.568Z,21.73
2019-02-20T02:01:17.985Z,24.33
2019-02-20T02:03:47.448Z,23.73
2019-02-20T02:06:18.012Z,22.93
2019-02-20T02:08:47.440Z,21.77
2019-02-20T02:11:20.154Z,19.73
2019-02-20T02:13:49.618Z,23.97
2019-02-20T02:16:19.045Z,18.70
2019-02-20T02:18:48.470Z,24.13
2019-02-20T02:21:17.884Z,19.87
2019-02-20T02:23:47.746Z,23.60
2019-02-20T02:26:17.209Z,25.33
2019-02-20T02:28:46.642Z,22.50
2019-02-20T02:31:16.109Z,25.93
2019-02-20T02:33:45.516Z,27.13
2019-02-20T02:36:14.939Z,19.57
2019-02-20T02:38:44.359Z,24.17
2019-02-20T02:41:13.822Z,21.23
2019-02-20T02:43:43.219Z,24.37
2019-02-20T02:46:12.657Z,23.40
2019-02-20T02:48:42.167Z,25.10
2019-02-20T02:51:11.564Z,19.50
2019-02-20T02:53:40.981Z,24.37
2019-02-20T02:56:10.394Z,21.30
2019-02-20T02:58:39.819Z,21.63
2019-02-20T03:01:09.236Z,23.00
2019-02-20T03:03:38.681Z,21.83
2019-02-20T03:06:08.084Z,19.23
2019-02-20T03:08:38.685Z,23.30
2019-02-20T03:11:08.103Z,23.13
2019-02-20T03:13:40.195Z,22.70
2019-02-20T03:16:09.598Z,20.93
2019-02-20T03:18:39.000Z,23.77
2019-02-20T03:21:08.404Z,20.80
2019-02-20T03:23:40.790Z,17.77
2019-02-20T03:26:13.257Z,20.93
2019-02-20T03:28:45.558Z,24.37
2019-02-20T03:31:15.006Z,21.07
2019-02-20T03:33:44.428Z,22.10
2019-02-20T03:36:13.883Z,24.23
2019-02-20T03:38:43.293Z,22.03
2019-02-20T03:41:12.713Z,22.63
2019-02-20T03:43:43.528Z,20.27
2019-02-20T03:46:12.947Z,19.30
2019-02-20T03:48:42.416Z,21.30
2019-02-20T03:51:11.801Z,20.10
2019-02-20T03:53:50.850Z,23.77
2019-02-20T03:56:12.343Z,20.17
2019-02-20T03:58:43.379Z,20.73
2019-02-20T04:01:12.835Z,20.30
2019-02-20T04:03:42.293Z,21.17
2019-02-20T04:06:11.720Z,19.60
2019-02-20T04:08:44.993Z,21.20
2019-02-20T04:11:14.412Z,23.07
2019-02-20T04:13:43.900Z,21.57
2019-02-20T04:16:13.407Z,21.30
2019-02-20T04:18:42.811Z,21.23
2019-02-20T04:21:12.236Z,20.10
2019-02-20T04:23:41.680Z,24.23
2019-02-20T04:26:11.133Z,19.87
2019-02-20T04:28:40.527Z,15.17
2019-02-20T04:31:10.546Z,20.10
2019-02-20T04:33:39.950Z,16.20
2019-02-20T04:36:09.395Z,26.43
2019-02-20T04:38:38.811Z,23.63
2019-02-20T04:41:08.239Z,17.70
2019-02-20T04:43:37.691Z,19.47
2019-02-20T04:46:07.118Z,19.60
2019-02-20T04:48:36.524Z,19.37
2019-02-20T04:51:05.992Z,19.07
2019-02-20T04:53:48.713Z,19.07
2019-02-20T04:56:18.115Z,18.37
2019-02-20T04:58:50.478Z,19.83
2019-02-20T05:01:19.900Z,24.73
2019-02-20T05:03:49.364Z,17.93
2019-02-20T05:06:18.780Z,19.97
2019-02-20T05:08:49.389Z,18.70
2019-02-20T05:11:18.795Z,20.70
2019-02-20T05:13:48.208Z,23.20
2019-02-20T05:16:17.646Z,23.10
2019-02-20T05:18:47.104Z,20.90
2019-02-20T05:21:16.510Z,18.33
2019-02-20T05:23:45.989Z,19.47
2019-02-20T05:26:15.403Z,18.30
2019-02-20T05:28:44.829Z,22.10
2019-02-20T05:31:16.425Z,18.37
2019-02-20T05:33:45.368Z,16.80
2019-02-20T05:36:14.773Z,23.87
2019-02-20T05:38:45.988Z,19.60
2019-02-20T05:41:15.470Z,17.90
2019-02-20T05:43:44.879Z,20.73
2019-02-20T05:46:14.386Z,20.07
2019-02-20T05:48:43.807Z,20.63
2019-02-20T05:51:13.394Z,21.17
2019-02-20T05:53:42.935Z,20.97
2019-02-20T05:56:12.325Z,19.17
2019-02-20T05:58:41.759Z,19.00
2019-02-20T06:01:11.526Z,24.43
2019-02-20T06:03:40.975Z,21.80
2019-02-20T06:06:10.434Z,19.27
2019-02-20T06:08:39.883Z,25.13
2019-02-20T06:11:14.918Z,23.17
2019-02-20T06:13:42.410Z,23.67
2019-02-20T06:16:11.852Z,19.23
2019-02-20T06:18:41.265Z,24.10
2019-02-20T06:21:10.721Z,21.47
2019-02-20T06:23:40.164Z,23.50
2019-02-20T06:26:09.653Z,18.67
2019-02-20T06:28:39.109Z,19.13
2019-02-20T06:31:08.522Z,23.47
2019-02-20T06:33:37.945Z,20.13
2019-02-20T06:36:07.413Z,17.30
2019-02-20T06:38:36.805Z,24.80
2019-02-20T06:41:06.226Z,23.27
2019-02-20T06:43:35.667Z,22.80
2019-02-20T06:46:05.049Z,21.70
2019-02-20T06:48:34.611Z,18.17
2019-02-20T06:51:04.063Z,21.57
2019-02-20T06:53:33.517Z,20.27
2019-02-20T06:56:02.992Z,24.10
2019-02-20T06:58:32.496Z,23.80
2019-02-20T07:01:01.961Z,19.37
2019-02-20T07:03:31.359Z,16.53
2019-02-20T07:06:03.948Z,22.67
2019-02-20T07:08:36.972Z,20.00
2019-02-20T07:11:28.691Z,23.83
2019-02-20T07:14:01.288Z,21.30
2019-02-20T07:16:33.859Z,19.57
2019-02-20T07:19:06.438Z,18.37
2019-02-20T07:21:39.025Z,24.83
2019-02-20T07:24:11.891Z,22.90
2019-02-20T07:26:44.423Z,18.93
2019-02-20T07:29:17.008Z,23.27
2019-02-20T07:31:46.450Z,22.20
2019-02-20T07:34:15.917Z,19.50
2019-02-20T07:36:45.382Z,22.23
2019-02-20T07:39:14.871Z,25.23
2019-02-20T07:41:44.332Z,20.17
2019-02-20T07:44:26.589Z,21.17
2019-02-20T07:46:56.014Z,21.00
2019-02-20T07:49:25.461Z,21.03
2019-02-20T07:51:54.963Z,24.70
2019-02-20T07:54:24.364Z,22.40
2019-02-20T07:56:53.770Z,16.53
2019-02-20T07:59:23.173Z,23.53
2019-02-20T08:01:52.606Z,20.70
2019-02-20T08:04:22.175Z,23.67
2019-02-20T08:07:04.733Z,19.67
2019-02-20T08:09:34.445Z,18.40
2019-02-20T08:12:03.800Z,19.47
2019-02-20T08:14:34.445Z,21.97
2019-02-20T08:17:03.869Z,21.80
2019-02-20T08:19:33.296Z,21.17
2019-02-20T08:22:02.747Z,20.17
2019-02-20T08:24:32.467Z,19.97
2019-02-20T08:27:02.023Z,22.83
2019-02-20T08:29:31.466Z,20.17
2019-02-20T08:32:00.878Z,18.77
2019-02-20T08:34:30.315Z,24.73
2019-02-20T08:36:59.824Z,20.37
2019-02-20T08:39:29.307Z,21.37
2019-02-20T08:41:58.858Z,27.07
2019-02-20T08:44:47.801Z,27.10
2019-02-20T08:47:17.280Z,21.83
2019-02-20T08:49:46.714Z,25.33
2019-02-20T08:52:16.152Z,22.33
2019-02-20T08:54:45.553Z,23.40
2019-02-20T08:57:15.048Z,21.57
2019-02-20T08:59:44.453Z,20.03
2019-02-20T09:02:14.295Z,23.90
2019-02-20T09:04:43.761Z,23.50
2019-02-20T09:07:13.436Z,22.33
2019-02-20T09:09:42.872Z,26.73
2019-02-20T09:12:12.856Z,23.23
2019-02-20T09:14:43.864Z,29.83
2019-02-20T09:17:13.340Z,23.90
2019-02-20T09:19:44.399Z,25.00
2019-02-20T09:22:13.843Z,28.30
2019-02-20T09:24:43.268Z,30.90
2019-02-20T09:27:13.300Z,27.50
2019-02-20T09:29:42.842Z,26.97
2019-02-20T09:32:12.261Z,29.53
2019-02-20T09:34:41.722Z,28.43
2019-02-20T09:37:11.143Z,29.30
2019-02-20T09:39:43.256Z,30.23
2019-02-20T09:42:11.827Z,30.30
2019-02-20T09:44:43.870Z,35.57
2019-02-20T09:47:13.307Z,32.50
2019-02-20T09:49:42.769Z,34.47
2019-02-20T09:52:12.200Z,33.77
2019-02-20T09:54:59.750Z,32.33
2019-02-20T09:57:29.269Z,35.43
2019-02-20T09:59:58.687Z,30.53
2019-02-20T10:02:28.135Z,32.77
2019-02-20T10:04:57.539Z,34.73
2019-02-20T10:07:26.965Z,37.43
2019-02-20T10:09:56.483Z,36.20
2019-02-20T10:12:25.956Z,35.23
2019-02-20T10:14:55.494Z,50.20
2019-02-20T10:17:24.966Z,37.10
2019-02-20T10:19:54.391Z,36.43
2019-02-20T10:22:24.282Z,37.07
2019-02-20T10:24:53.892Z,40.67
2019-02-20T10:27:23.314Z,45.17
2019-02-20T10:29:52.738Z,42.87
2019-02-20T10:32:22.147Z,39.27
2019-02-20T10:34:51.805Z,45.97
2019-02-20T10:37:21.268Z,40.67
2019-02-20T10:39:50.778Z,41.50
2019-02-20T10:42:37.963Z,43.60
2019-02-20T10:45:09.692Z,41.17
2019-02-20T10:47:39.106Z,42.80
2019-02-20T10:50:10.764Z,42.77
2019-02-20T10:52:40.360Z,46.83
2019-02-20T10:55:10.175Z,37.33
2019-02-20T10:57:39.596Z,31.13
2019-02-20T11:00:23.471Z,30.23
2019-02-20T11:02:44.895Z,29.33
2019-02-20T11:05:14.325Z,29.40
2019-02-20T11:07:46.409Z,29.30
2019-02-20T11:10:15.822Z,24.13
2019-02-20T11:12:45.352Z,23.70
2019-02-20T11:15:15.513Z,27.47
2019-02-20T11:17:44.989Z,28.20
2019-02-20T11:20:14.435Z,22.33
2019-02-20T11:22:43.872Z,23.97
2019-02-20T11:25:13.461Z,25.13
2019-02-20T11:27:42.957Z,17.90
2019-02-20T11:30:15.659Z,22.50
2019-02-20T11:32:45.100Z,21.70
2019-02-20T11:35:14.534Z,21.73
2019-02-20T11:37:43.991Z,20.10
2019-02-20T11:40:14.064Z,16.53
2019-02-20T11:42:43.473Z,23.13
2019-02-20T11:45:14.933Z,15.87
2019-02-20T11:47:44.326Z,19.30
2019-02-20T11:50:13.772Z,25.13
2019-02-20T11:52:43.272Z,16.97
2019-02-20T11:55:13.869Z,16.43
2019-02-20T11:57:43.280Z,16.43
2019-02-20T12:00:15.369Z,14.87
2019-02-20T12:02:44.796Z,15.67
2019-02-20T12:05:14.247Z,16.67
2019-02-20T12:07:43.656Z,12.97
2019-02-20T12:10:15.218Z,13.27
2019-02-20T12:12:44.921Z,18.60
2019-02-20T12:15:14.528Z,11.90
2019-02-20T12:17:43.926Z,18.97
2019-02-20T12:20:13.857Z,14.73
2019-02-20T12:22:43.355Z,14.00
2019-02-20T12:25:12.751Z,14.53
2019-02-20T12:27:43.789Z,16.33
2019-02-20T12:30:13.201Z,14.50
2019-02-20T12:32:44.400Z,9.27
2019-02-20T12:35:14.010Z,14.40
2019-02-20T12:37:44.577Z,11.57
2019-02-20T12:40:14.538Z,12.53
2019-02-20T12:42:44.070Z,9.57
2019-02-20T12:45:13.508Z,12.40
2019-02-20T12:47:43.039Z,12.87
2019-02-20T12:50:13.505Z,10.53
2019-02-20T12:52:43.103Z,13.80
2019-02-20T12:55:12.540Z,9.93
2019-02-20T12:57:41.980Z,11.40
2019-02-20T13:00:15.578Z,13.20
2019-02-20T13:02:45.396Z,15.07
2019-02-20T13:05:14.825Z,10.73
2019-02-20T13:07:44.279Z,13.03
2019-02-20T13:10:13.704Z,15.63
2019-02-20T13:12:43.215Z,13.70
2019-02-20T13:15:12.709Z,13.60
2019-02-20T13:17:42.276Z,13.43
2019-02-20T13:20:11.935Z,12.90
2019-02-20T13:22:41.336Z,13.33
2019-02-20T13:25:10.835Z,16.03
2019-02-20T13:27:40.438Z,12.50
2019-02-20T13:30:12.862Z,11.70
2019-02-20T13:32:42.311Z,14.80
2019-02-20T13:35:11.745Z,12.40
2019-02-20T13:37:41.145Z,12.07
2019-02-20T13:40:11.021Z,12.30
2019-02-20T13:42:40.455Z,12.43
2019-02-20T13:45:09.936Z,16.97
2019-02-20T13:47:40.483Z,17.23
2019-02-20T13:50:14.367Z,12.47
2019-02-20T13:52:52.061Z,12.83
2019-02-20T13:55:15.360Z,13.53
2019-02-20T13:57:44.973Z,16.00
2019-02-20T14:00:14.490Z,12.97
2019-02-20T14:02:43.986Z,14.30
2019-02-20T14:05:13.498Z,16.37
2019-02-20T14:07:43.268Z,18.00
2019-02-20T14:10:12.983Z,14.50
2019-02-20T14:13:00.254Z,16.20
2019-02-20T14:15:29.690Z,17.97
2019-02-20T14:17:59.197Z,15.13
2019-02-20T14:20:28.604Z,15.53
2019-02-20T14:22:58.025Z,15.43
2019-02-20T14:25:27.481Z,17.10
2019-02-20T14:27:56.971Z,17.97
2019-02-20T14:30:26.480Z,16.67
2019-02-20T14:32:55.946Z,16.37
2019-02-20T14:35:25.434Z,13.23
2019-02-20T14:37:54.863Z,14.57
2019-02-20T14:40:24.371Z,12.07
2019-02-20T14:42:53.920Z,13.33
2019-02-20T14:45:23.421Z,14.27
2019-02-20T14:47:52.859Z,12.10
2019-02-20T14:50:22.643Z,12.93
2019-02-20T14:52:52.225Z,15.87
2019-02-20T14:55:21.752Z,11.13
2019-02-20T14:57:51.320Z,12.37
2019-02-20T15:00:20.838Z,12.87
2019-02-20T15:02:50.310Z,11.87
2019-02-20T15:05:20.212Z,10.30
2019-02-20T15:07:49.724Z,15.20
2019-02-20T15:10:19.140Z,9.33
2019-02-20T15:12:48.572Z,11.57
2019-02-20T15:15:19.120Z,11.97
2019-02-20T15:17:50.335Z,12.60
2019-02-20T15:20:21.355Z,14.73
2019-02-20T15:22:53.301Z,12.90
2019-02-20T15:25:23.598Z,13.60
2019-02-20T15:27:53.161Z,13.00
2019-02-20T15:30:22.723Z,11.50
2019-02-20T15:32:52.476Z,11.30
2019-02-20T15:35:21.915Z,12.83
2019-02-20T15:37:51.383Z,13.67
2019-02-20T15:40:20.879Z,11.90
2019-02-20T15:42:50.323Z,17.53
2019-02-20T15:45:19.765Z,11.10
2019-02-20T15:47:49.183Z,12.30
2019-02-20T15:50:18.805Z,12.87
2019-02-20T15:52:48.324Z,14.33
2019-02-20T15:55:18.829Z,12.73
2019-02-20T15:57:48.230Z,14.70
2019-02-20T16:00:19.551Z,15.53
2019-02-20T16:02:50.021Z,13.73
2019-02-20T16:05:19.826Z,11.07
2019-02-20T16:07:49.225Z,12.50
2019-02-20T16:10:18.694Z,16.50
2019-02-20T16:12:48.150Z,13.93
2019-02-20T16:15:17.777Z,14.70
2019-02-20T16:17:47.270Z,15.20
2019-02-20T16:20:17.066Z,14.47
2019-02-20T16:22:46.813Z,13.70
2019-02-20T16:25:16.693Z,15.60
2019-02-20T16:27:47.437Z,12.10
2019-02-20T16:30:17.268Z,16.40
2019-02-20T16:32:46.880Z,15.17
2019-02-20T16:35:16.527Z,18.57
2019-02-20T16:37:45.975Z,15.57
2019-02-20T16:40:15.944Z,17.63
2019-02-20T16:42:45.458Z,17.83
2019-02-20T16:45:17.762Z,15.67
2019-02-20T16:47:47.285Z,15.07
2019-02-20T16:50:17.078Z,15.30
2019-02-20T16:52:46.596Z,17.70
2019-02-20T16:55:19.029Z,13.67
2019-02-20T16:57:55.931Z,15.73
2019-02-20T17:00:20.685Z,15.17
2019-02-20T17:02:50.139Z,15.93
2019-02-20T17:05:22.714Z,16.97
2019-02-20T17:07:52.244Z,16.93
2019-02-20T17:10:22.373Z,15.80
2019-02-20T17:12:51.850Z,18.57
2019-02-20T17:15:21.274Z,19.33
2019-02-20T17:17:54.039Z,17.80
2019-02-20T17:20:23.446Z,18.40
2019-02-20T17:22:53.172Z,18.43
2019-02-20T17:25:22.572Z,17.63
2019-02-20T17:27:52.036Z,20.07
2019-02-20T17:30:21.469Z,19.20
2019-02-20T17:32:51.187Z,21.83
2019-02-20T17:35:20.609Z,17.83
2019-02-20T17:37:50.063Z,18.57
2019-02-20T17:40:19.673Z,19.03
2019-02-20T17:42:49.206Z,20.10
2019-02-20T17:45:19.249Z,20.13
2019-02-20T17:47:49.007Z,20.23
2019-02-20T17:50:20.365Z,21.27
2019-02-20T17:52:49.794Z,20.17
2019-02-20T17:55:19.276Z,22.23
2019-02-20T17:57:48.705Z,18.17
2019-02-20T18:00:19.879Z,21.00
2019-02-20T18:02:49.294Z,21.47
2019-02-20T18:05:18.736Z,19.67
2019-02-20T18:07:51.473Z,19.23
2019-02-20T18:10:19.315Z,20.80
2019-02-20T18:12:48.733Z,19.83
2019-02-20T18:15:18.190Z,17.83
2019-02-20T18:17:47.647Z,17.23
2019-02-20T18:20:17.107Z,23.13
2019-02-20T18:22:46.536Z,16.80
2019-02-20T18:25:17.064Z,17.30
2019-02-20T18:27:46.480Z,17.20
2019-02-20T18:30:16.292Z,19.33
2019-02-20T18:32:45.842Z,18.57
2019-02-20T18:35:17.195Z,22.27
2019-02-20T18:37:46.624Z,21.10
2019-02-20T18:40:16.999Z,18.07
2019-02-20T18:42:46.491Z,16.93
2019-02-20T18:45:16.058Z,20.03
2019-02-20T18:47:45.590Z,15.37
2019-02-20T18:50:16.587Z,17.60
2019-02-20T18:52:45.990Z,16.77
2019-02-20T18:55:15.428Z,18.67
2019-02-20T18:57:46.459Z,20.03
2019-02-20T19:00:19.847Z,18.87
2019-02-20T19:02:49.287Z,22.70
2019-02-20T19:05:21.456Z,19.60
2019-02-20T19:07:50.901Z,21.73
2019-02-20T19:10:23.865Z,18.80
2019-02-20T19:12:56.411Z,20.40
2019-02-20T19:15:29.060Z,18.33
2019-02-20T19:18:01.651Z,19.53
2019-02-20T19:20:37.509Z,22.13
2019-02-20T19:23:10.162Z,22.23
2019-02-20T19:25:43.637Z,18.80
2019-02-20T19:28:16.197Z,23.33
2019-02-20T19:30:48.990Z,20.60
2019-02-20T19:33:21.593Z,22.53
2019-02-20T19:35:55.064Z,21.07
2019-02-20T19:38:27.708Z,18.37
2019-02-20T19:41:00.354Z,20.40
2019-02-20T19:43:32.910Z,20.63
2019-02-20T19:46:23.269Z,22.67
2019-02-20T19:48:55.888Z,19.57
2019-02-20T19:51:28.623Z,26.80
2019-02-20T19:54:01.250Z,21.80
2019-02-20T19:56:51.660Z,25.60
2019-02-20T19:59:24.196Z,22.83
2019-02-20T20:01:56.788Z,26.63
2019-02-20T20:04:29.384Z,22.20
2019-02-20T20:07:13.757Z,24.20
2019-02-20T20:12:49.615Z,21.07
2019-02-20T20:15:27.999Z,21.23
2019-02-20T20:18:00.574Z,21.50
2019-02-20T20:20:33.506Z,25.70
2019-02-20T20:23:06.362Z,21.10
2019-02-20T20:25:39.372Z,20.40
2019-02-20T20:28:11.946Z,22.97
2019-02-20T20:30:44.897Z,22.03
2019-02-20T20:33:17.874Z,26.10
2019-02-20T20:36:01.658Z,24.47
2019-02-20T20:38:34.248Z,22.53
2019-02-20T20:41:09.134Z,22.93
2019-02-20T20:43:41.079Z,22.83
2019-02-20T20:46:13.629Z,22.60
2019-02-20T20:48:51.537Z,22.47
2019-02-20T20:51:35.105Z,20.67
2019-02-20T20:54:07.664Z,23.47
2019-02-20T20:56:40.256Z,21.73
2019-02-20T20:59:17.884Z,24.87
2019-02-20T21:01:49.979Z,23.00
2019-02-20T21:04:22.551Z,19.83
2019-02-20T21:09:58.734Z,23.93
2019-02-20T21:12:31.382Z,26.93
2019-02-20T21:15:03.980Z,20.77
2019-02-20T21:17:37.082Z,25.43
2019-02-20T21:20:09.670Z,22.90
2019-02-20T21:22:42.367Z,22.77
2019-02-20T21:25:14.929Z,22.77
2019-02-20T21:27:47.498Z,24.70
2019-02-20T21:30:20.181Z,23.00
2019-02-20T21:33:03.899Z,26.73
2019-02-20T21:35:36.502Z,23.90
2019-02-20T21:38:09.179Z,24.27
2019-02-20T21:40:41.734Z,28.03
2019-02-20T21:43:14.300Z,23.40
2019-02-20T21:45:46.900Z,22.43
2019-02-20T21:48:19.480Z,22.13
2019-02-20T21:50:55.366Z,23.47
2019-02-20T21:53:27.933Z,21.60
2019-02-20T21:56:00.512Z,25.17
2019-02-20T21:58:33.568Z,25.23
2019-02-20T22:01:06.149Z,25.53
2019-02-20T22:03:38.863Z,29.50
2019-02-20T22:06:11.453Z,24.40
2019-02-20T22:08:44.021Z,26.27
2019-02-20T22:11:16.571Z,24.90
2019-02-20T22:13:49.143Z,23.30
2019-02-20T22:16:21.799Z,25.07
2019-02-20T22:18:54.396Z,26.03
2019-02-20T22:21:27.009Z,27.57
2019-02-20T22:23:59.719Z,26.67
2019-02-20T22:26:32.269Z,28.00
2019-02-20T22:29:07.881Z,24.03
2019-02-20T22:31:40.618Z,26.30
2019-02-20T22:34:13.202Z,23.97
2019-02-20T22:36:45.761Z,26.67
2019-02-20T22:39:18.702Z,24.30
2019-02-20T22:41:51.342Z,23.30
2019-02-20T22:44:23.941Z,27.47
2019-02-20T22:46:56.948Z,26.40
2019-02-20T22:49:29.526Z,25.33
2019-02-20T22:52:02.100Z,25.17
2019-02-20T22:54:34.648Z,24.50
2019-02-20T22:57:07.309Z,29.80
2019-02-20T22:59:39.893Z,25.50
2019-02-20T23:05:20.539Z,28.00
2019-02-20T23:07:53.114Z,22.93
2019-02-20T23:10:25.723Z,28.50
2019-02-20T23:12:58.639Z,24.90
2019-02-20T23:15:28.029Z,23.23
2019-02-20T23:17:57.433Z,24.97
2019-02-20T23:20:26.875Z,26.73
2019-02-20T23:22:57.127Z,26.37
2019-02-20T23:25:26.715Z,26.00
2019-02-20T23:27:56.210Z,30.43
2019-02-20T23:30:25.675Z,28.13
2019-02-20T23:32:56.621Z,29.77
2019-02-20T23:35:26.035Z,27.93
2019-02-20T23:37:55.467Z,28.70
2019-02-20T23:40:27.339Z,28.47
2019-02-20T23:42:56.025Z,25.60
2019-02-20T23:45:25.429Z,27.07
2019-02-20T23:47:54.921Z,27.87
2019-02-20T23:50:24.497Z,29.23
2019-02-20T23:52:54.365Z,30.27
2019-02-20T23:55:23.852Z,28.93
2019-02-20T23:57:53.305Z,32.40
